createdAt,value
2017-10-23T00:01:19.159Z,90.70
2017-10-23T00:03:48.016Z,90.90
2017-10-23T00:06:16.939Z,91.10
2017-10-23T00:08:46.542Z,91.50
2017-10-23T00:11:16.160Z,91.90
2017-10-23T00:13:45.758Z,92.10
2017-10-23T00:16:14.687Z,92.10
2017-10-23T00:18:43.534Z,92.20
2017-10-23T00:21:12.380Z,92.50
2017-10-23T00:23:41.218Z,92.80
2017-10-23T00:26:10.834Z,93.00
2017-10-23T00:28:40.435Z,93.00
2017-10-23T00:31:10.067Z,92.90
2017-10-23T00:33:39.666Z,93.00
2017-10-23T00:36:10.113Z,93.00
2017-10-23T00:38:38.962Z,93.00
2017-10-23T00:41:07.811Z,93.10
2017-10-23T00:43:36.943Z,93.20
2017-10-23T00:46:05.786Z,93.00
2017-10-23T00:48:35.220Z,92.90
2017-10-23T00:51:04.055Z,93.00
2017-10-23T00:53:33.677Z,92.50
2017-10-23T00:56:02.593Z,92.30
2017-10-23T00:58:30.743Z,92.30
2017-10-23T01:01:00.334Z,92.40
2017-10-23T01:03:29.414Z,92.40
2017-10-23T01:05:58.262Z,92.40
2017-10-23T01:08:27.100Z,92.30
2017-10-23T01:10:55.599Z,92.30
2017-10-23T01:13:24.448Z,92.40
2017-10-23T01:15:53.296Z,92.20
2017-10-23T01:18:22.939Z,92.10
2017-10-23T01:20:51.106Z,92.10
2017-10-23T01:23:19.762Z,92.00
2017-10-23T01:25:49.174Z,92.00
2017-10-23T01:28:17.687Z,92.00
2017-10-23T01:30:45.895Z,92.00
2017-10-23T01:33:14.071Z,92.20
2017-10-23T01:35:43.463Z,92.10
2017-10-23T01:38:11.638Z,92.10
2017-10-23T01:40:39.792Z,92.40
2017-10-23T01:43:07.934Z,92.00
2017-10-23T01:45:36.101Z,92.00
2017-10-23T01:48:05.692Z,92.40
2017-10-23T01:50:35.075Z,92.40
2017-10-23T01:53:04.243Z,92.60
2017-10-23T01:55:33.936Z,92.70
2017-10-23T01:58:02.837Z,92.70
2017-10-23T02:00:31.352Z,92.70
2017-10-23T02:03:00.195Z,92.80
2017-10-23T02:05:28.362Z,92.90
2017-10-23T02:07:57.253Z,92.70
2017-10-23T02:10:25.438Z,92.60
2017-10-23T02:12:54.320Z,92.50
2017-10-23T02:15:23.186Z,92.40
2017-10-23T02:17:52.026Z,92.40
2017-10-23T02:20:20.842Z,92.50
2017-10-23T02:22:49.690Z,92.40
2017-10-23T02:25:18.539Z,92.50
2017-10-23T02:27:47.382Z,92.20
2017-10-23T02:30:18.805Z,92.20
2017-10-23T02:32:48.410Z,92.30
2017-10-23T02:35:18.028Z,92.30
2017-10-23T02:37:46.887Z,92.30
2017-10-23T02:40:15.749Z,92.20
2017-10-23T02:42:44.956Z,92.30
2017-10-23T02:45:13.805Z,92.40
2017-10-23T02:47:42.657Z,92.30
2017-10-23T02:50:11.171Z,92.40
2017-10-23T02:52:41.311Z,92.30
2017-10-23T02:55:10.184Z,92.30
2017-10-23T02:57:40.336Z,92.40
2017-10-23T03:00:09.204Z,92.40
2017-10-23T03:02:38.380Z,92.40
2017-10-23T03:08:38.830Z,92.40
2017-10-23T03:11:08.851Z,92.40
2017-10-23T03:13:37.790Z,92.70
2017-10-23T03:16:05.945Z,92.70
2017-10-23T03:18:34.443Z,92.70
2017-10-23T03:21:02.599Z,92.70
2017-10-23T03:23:30.757Z,92.70
2017-10-23T03:25:59.683Z,92.60
2017-10-23T03:28:27.859Z,92.60
2017-10-23T03:30:56.364Z,92.50
2017-10-23T03:33:24.874Z,92.70
2017-10-23T03:35:53.044Z,92.90
2017-10-23T03:38:21.556Z,92.90
2017-10-23T03:40:51.024Z,93.00
2017-10-23T03:43:19.258Z,93.20
2017-10-23T03:45:49.141Z,93.40
2017-10-23T03:48:18.067Z,93.60
2017-10-23T03:50:46.569Z,93.60
2017-10-23T03:53:15.401Z,93.80
2017-10-23T03:55:45.009Z,93.90
2017-10-23T03:58:14.733Z,93.80
2017-10-23T04:00:44.049Z,94.10
2017-10-23T04:03:12.539Z,94.10
2017-10-23T04:05:42.024Z,94.10
2017-10-23T04:08:10.951Z,94.20
2017-10-23T04:10:39.123Z,94.20
2017-10-23T04:13:07.812Z,94.10
2017-10-23T04:15:36.945Z,94.30
2017-10-23T04:18:05.099Z,94.40
2017-10-23T04:20:33.443Z,94.40
2017-10-23T04:23:01.399Z,94.90
2017-10-23T04:25:29.589Z,94.50
2017-10-23T04:27:58.099Z,95.00
2017-10-23T04:30:26.247Z,94.50
2017-10-23T04:32:54.774Z,94.40
2017-10-23T04:35:23.628Z,94.40
2017-10-23T04:37:52.158Z,94.30
2017-10-23T04:40:20.314Z,94.10
2017-10-23T04:42:48.839Z,94.00
2017-10-23T04:45:18.117Z,93.90
2017-10-23T04:47:46.618Z,93.90
2017-10-23T04:50:15.974Z,93.70
2017-10-23T04:52:45.629Z,93.70
2017-10-23T04:55:15.095Z,93.30
2017-10-23T04:57:44.447Z,93.30
2017-10-23T05:00:13.962Z,92.50
2017-10-23T05:02:42.122Z,92.50
2017-10-23T05:05:11.055Z,92.40
2017-10-23T05:07:39.224Z,92.40
2017-10-23T05:10:07.386Z,92.50
2017-10-23T05:12:37.365Z,92.50
2017-10-23T05:15:05.538Z,92.50
2017-10-23T05:17:34.046Z,92.60
2017-10-23T05:20:03.732Z,92.30
2017-10-23T05:22:31.886Z,92.30
2017-10-23T05:25:00.409Z,92.10
2017-10-23T05:27:29.332Z,92.10
2017-10-23T05:29:57.512Z,92.10
2017-10-23T05:32:25.706Z,92.10
2017-10-23T05:34:55.473Z,92.10
2017-10-23T05:37:23.994Z,92.00
2017-10-23T05:39:52.879Z,91.90
2017-10-23T05:42:23.015Z,91.90
2017-10-23T05:44:52.091Z,91.80
2017-10-23T05:47:20.610Z,91.70
2017-10-23T05:49:49.358Z,91.60
2017-10-23T05:52:18.407Z,91.70
2017-10-23T05:54:46.927Z,91.80
2017-10-23T05:57:15.474Z,91.60
2017-10-23T05:59:44.019Z,91.60
2017-10-23T06:02:12.890Z,91.60
2017-10-23T06:04:41.057Z,91.50
2017-10-23T06:07:09.751Z,91.40
2017-10-23T06:09:37.735Z,91.20
2017-10-23T06:12:05.887Z,91.30
2017-10-23T06:14:35.074Z,91.20
2017-10-23T06:17:03.579Z,91.00
2017-10-23T06:19:31.551Z,91.10
2017-10-23T06:21:59.765Z,90.90
2017-10-23T06:24:36.405Z,90.70
2017-10-23T06:27:05.518Z,90.70
2017-10-23T06:29:33.854Z,90.70
2017-10-23T06:32:02.043Z,90.50
2017-10-23T06:34:30.834Z,90.40
2017-10-23T06:36:59.339Z,90.40
2017-10-23T06:39:27.847Z,90.30
2017-10-23T06:41:57.326Z,90.20
2017-10-23T06:44:26.706Z,90.20
2017-10-23T06:46:54.884Z,90.10
2017-10-23T06:49:24.870Z,90.20
2017-10-23T06:51:54.158Z,90.00
2017-10-23T06:54:22.710Z,90.00
2017-10-23T06:56:50.892Z,90.00
2017-10-23T06:59:19.424Z,90.00
2017-10-23T07:01:49.027Z,89.70
2017-10-23T07:04:17.539Z,89.70
2017-10-23T07:06:45.740Z,89.60
2017-10-23T07:09:13.917Z,89.40
2017-10-23T07:11:42.708Z,89.20
2017-10-23T07:14:10.892Z,89.00
2017-10-23T07:16:42.362Z,89.00
2017-10-23T07:19:10.876Z,88.90
2017-10-23T07:21:40.060Z,88.80
2017-10-23T07:24:09.350Z,88.90
2017-10-23T07:26:38.979Z,88.70
2017-10-23T07:29:07.142Z,88.70
2017-10-23T07:31:36.754Z,88.80
2017-10-23T07:34:06.365Z,88.40
2017-10-23T07:36:36.008Z,88.10
2017-10-23T07:39:08.031Z,88.00
2017-10-23T07:41:37.695Z,87.70
2017-10-23T07:44:06.583Z,87.70
2017-10-23T07:46:35.141Z,87.70
2017-10-23T07:49:05.319Z,87.50
2017-10-23T07:51:34.199Z,87.40
2017-10-23T07:54:03.076Z,87.20
2017-10-23T07:56:33.776Z,87.00
2017-10-23T07:59:03.381Z,86.90
2017-10-23T08:01:32.294Z,86.40
2017-10-23T08:04:01.180Z,86.40
2017-10-23T08:06:30.079Z,86.10
2017-10-23T08:08:58.966Z,86.20
2017-10-23T08:11:27.833Z,86.20
2017-10-23T08:13:57.447Z,85.90
2017-10-23T08:16:26.140Z,85.90
2017-10-23T08:18:55.774Z,85.70
2017-10-23T08:21:24.622Z,85.70
2017-10-23T08:23:54.899Z,85.60
2017-10-23T08:26:24.619Z,85.50
2017-10-23T08:28:54.031Z,85.50
2017-10-23T08:31:23.683Z,85.30
2017-10-23T08:33:53.295Z,85.00
2017-10-23T08:36:23.121Z,85.00
2017-10-23T08:38:52.087Z,84.60
2017-10-23T08:41:21.713Z,84.10
2017-10-23T08:43:50.563Z,84.00
2017-10-23T08:46:19.416Z,83.60
2017-10-23T08:48:48.323Z,83.50
2017-10-23T08:51:17.340Z,83.20
2017-10-23T08:53:46.180Z,83.00
2017-10-23T08:56:15.521Z,82.50
2017-10-23T08:58:45.089Z,82.20
2017-10-23T09:01:13.246Z,81.90
2017-10-23T09:03:42.880Z,81.30
2017-10-23T09:06:11.714Z,81.20
2017-10-23T09:08:40.555Z,80.90
2017-10-23T09:11:10.215Z,80.70
2017-10-23T09:13:38.932Z,80.50
2017-10-23T09:16:08.375Z,80.20
2017-10-23T09:18:37.038Z,80.20
2017-10-23T09:21:05.706Z,80.00
2017-10-23T09:23:34.850Z,80.00
2017-10-23T09:26:04.118Z,79.90
2017-10-23T09:28:32.979Z,79.90
2017-10-23T09:31:02.707Z,79.70
2017-10-23T09:33:31.218Z,79.60
2017-10-23T09:38:33.046Z,79.60
2017-10-23T09:41:04.062Z,79.50
2017-10-23T09:43:32.898Z,79.70
2017-10-23T09:46:02.547Z,79.90
2017-10-23T09:48:31.652Z,79.90
2017-10-23T09:51:02.166Z,80.00
2017-10-23T09:53:31.038Z,80.20
2017-10-23T09:56:01.346Z,81.50
2017-10-23T09:58:30.959Z,82.90
2017-10-23T10:01:00.567Z,83.70
2017-10-23T10:03:30.187Z,84.90
2017-10-23T10:05:59.791Z,85.50
2017-10-23T10:08:28.350Z,85.50
2017-10-23T10:10:57.206Z,85.90
2017-10-23T10:13:26.291Z,85.60
2017-10-23T10:15:56.814Z,85.70
2017-10-23T10:18:29.064Z,86.20
2017-10-23T10:20:59.259Z,86.10
2017-10-23T10:26:03.924Z,85.80
2017-10-23T10:28:33.567Z,85.60
2017-10-23T10:31:03.568Z,85.20
2017-10-23T10:33:32.436Z,85.00
2017-10-23T10:36:14.392Z,84.80
2017-10-23T10:38:47.532Z,84.70
2017-10-23T10:41:17.160Z,84.80
2017-10-23T10:43:46.010Z,84.70
2017-10-23T10:46:14.897Z,84.50
2017-10-23T10:48:44.463Z,84.10
2017-10-23T10:51:13.303Z,84.10
2017-10-23T10:53:42.806Z,84.10
2017-10-23T10:56:11.308Z,84.10
2017-10-23T10:58:40.229Z,83.90
2017-10-23T11:01:09.774Z,84.10
2017-10-23T11:03:39.108Z,84.00
2017-10-23T11:06:09.127Z,84.00
2017-10-23T11:08:38.736Z,84.20
2017-10-23T11:11:08.580Z,84.30
2017-10-23T11:13:37.435Z,84.20
2017-10-23T11:16:07.065Z,84.50
2017-10-23T11:18:36.669Z,84.70
2017-10-23T11:21:06.269Z,85.10
2017-10-23T11:23:35.888Z,85.30
2017-10-23T11:26:04.743Z,85.30
2017-10-23T11:28:33.579Z,85.40
2017-10-23T11:31:02.927Z,85.70
2017-10-23T11:33:31.812Z,85.90
2017-10-23T11:36:00.660Z,86.20
2017-10-23T11:38:29.527Z,86.40
2017-10-23T11:40:58.379Z,86.40
2017-10-23T11:43:27.239Z,86.60
2017-10-23T11:45:57.017Z,86.60
2017-10-23T11:48:25.886Z,86.40
2017-10-23T11:50:54.736Z,86.80
2017-10-23T11:53:24.365Z,86.90
2017-10-23T11:55:53.219Z,87.20
2017-10-23T11:58:22.840Z,87.40
2017-10-23T12:00:51.683Z,87.40
2017-10-23T12:03:20.519Z,87.60
2017-10-23T12:05:49.362Z,87.70
2017-10-23T12:08:18.199Z,87.40
2017-10-23T12:10:47.038Z,87.30
2017-10-23T12:13:15.903Z,87.10
2017-10-23T12:15:44.425Z,87.10
2017-10-23T12:18:13.254Z,87.40
2017-10-23T12:20:42.117Z,88.30
2017-10-23T12:23:10.663Z,88.50
2017-10-23T12:25:39.512Z,88.70
2017-10-23T12:28:08.775Z,88.00
2017-10-23T12:30:37.639Z,87.90
2017-10-23T12:33:06.475Z,87.60
2017-10-23T12:35:35.322Z,87.90
2017-10-23T12:38:04.182Z,88.00
2017-10-23T12:40:32.367Z,88.90
2017-10-23T12:43:02.019Z,89.50
2017-10-23T12:45:30.889Z,89.60
2017-10-23T12:47:59.727Z,90.00
2017-10-23T12:50:28.599Z,90.20
2017-10-23T12:52:57.447Z,90.30
2017-10-23T12:55:26.312Z,90.30
2017-10-23T12:57:55.961Z,90.30
2017-10-23T13:00:24.802Z,90.20
2017-10-23T13:02:54.090Z,90.60
2017-10-23T13:05:25.543Z,90.60
2017-10-23T13:07:53.981Z,90.60
2017-10-23T13:10:23.722Z,90.70
2017-10-23T13:12:52.590Z,90.80
2017-10-23T13:15:21.497Z,90.70
2017-10-23T13:17:50.355Z,90.80
2017-10-23T13:20:19.212Z,90.90
2017-10-23T13:22:48.080Z,91.00
2017-10-23T13:25:16.937Z,90.80
2017-10-23T13:27:46.754Z,90.80
2017-10-23T13:30:16.196Z,90.50
2017-10-23T13:32:45.072Z,90.50
2017-10-23T13:35:13.945Z,90.40
2017-10-23T13:37:43.440Z,90.20
2017-10-23T13:40:12.307Z,90.10
2017-10-23T13:42:41.156Z,90.00
2017-10-23T13:45:10.816Z,89.90
2017-10-23T13:47:41.238Z,89.60
2017-10-23T13:50:11.155Z,89.60
2017-10-23T13:52:40.003Z,89.30
2017-10-23T13:55:09.298Z,89.00
2017-10-23T13:57:38.195Z,88.70
2017-10-23T14:00:07.834Z,88.70
2017-10-23T14:02:37.468Z,88.40
2017-10-23T14:05:07.402Z,88.40
2017-10-23T14:07:36.286Z,88.50
2017-10-23T14:10:05.152Z,88.30
2017-10-23T14:12:33.994Z,88.30
2017-10-23T14:15:02.840Z,88.30
2017-10-23T14:17:31.694Z,88.50
2017-10-23T14:20:00.655Z,88.80
2017-10-23T14:22:28.909Z,88.80
2017-10-23T14:24:57.074Z,89.00
2017-10-23T14:27:25.254Z,89.30
2017-10-23T14:29:54.196Z,89.60
2017-10-23T14:32:22.690Z,89.80
2017-10-23T14:34:53.887Z,90.00
2017-10-23T14:37:21.895Z,90.00
2017-10-23T14:39:51.516Z,90.20
2017-10-23T14:42:20.292Z,90.50
2017-10-23T14:44:48.332Z,90.60
2017-10-23T14:47:16.516Z,91.00
2017-10-23T14:49:44.724Z,91.90
2017-10-23T14:52:13.666Z,92.40
2017-10-23T14:54:41.839Z,92.40
2017-10-23T14:57:10.018Z,92.50
2017-10-23T14:59:38.197Z,92.60
2017-10-23T15:02:06.410Z,92.60
2017-10-23T15:04:35.275Z,92.70
2017-10-23T15:07:04.655Z,92.70
2017-10-23T15:09:33.532Z,92.70
2017-10-23T15:12:02.414Z,92.70
2017-10-23T15:14:30.611Z,92.70
2017-10-23T15:17:00.183Z,92.70
2017-10-23T15:19:29.493Z,92.70
2017-10-23T15:21:58.422Z,92.60
2017-10-23T15:24:27.771Z,92.60
2017-10-23T15:26:56.391Z,92.40
2017-10-23T15:29:25.720Z,92.30
2017-10-23T15:31:54.629Z,92.30
2017-10-23T15:34:23.742Z,92.30
2017-10-23T15:36:52.596Z,92.20
2017-10-23T15:39:21.470Z,92.00
2017-10-23T15:41:50.922Z,91.90
2017-10-23T15:44:19.843Z,91.90
2017-10-23T15:46:48.702Z,91.70
2017-10-23T15:49:18.189Z,91.50
2017-10-23T15:51:47.775Z,91.50
2017-10-23T15:54:16.456Z,91.50
2017-10-23T15:56:45.115Z,91.40
2017-10-23T15:59:14.735Z,91.20
2017-10-23T16:01:44.989Z,91.10
2017-10-23T16:04:13.883Z,91.10
2017-10-23T16:06:42.758Z,91.10
2017-10-23T16:09:12.376Z,91.10
2017-10-23T16:11:41.186Z,91.00
2017-10-23T16:16:46.503Z,91.10
2017-10-23T16:19:16.139Z,90.80
2017-10-23T16:21:44.986Z,90.70
2017-10-23T16:24:14.697Z,90.70
2017-10-23T16:26:43.630Z,90.70
2017-10-23T16:29:12.486Z,90.60
2017-10-23T16:31:42.111Z,90.40
2017-10-23T16:34:10.971Z,90.40
2017-10-23T16:36:40.529Z,90.40
2017-10-23T16:39:09.036Z,90.30
2017-10-23T16:41:37.910Z,90.30
2017-10-23T16:44:06.782Z,90.20
2017-10-23T16:46:36.616Z,90.10
2017-10-23T16:49:05.503Z,90.00
2017-10-23T16:51:34.397Z,90.00
2017-10-23T16:54:03.255Z,90.00
2017-10-23T16:56:32.891Z,89.90
2017-10-23T16:59:01.768Z,89.90
2017-10-23T17:01:33.373Z,90.00
2017-10-23T17:04:02.236Z,89.90
2017-10-23T17:06:31.095Z,90.00
2017-10-23T17:08:59.976Z,89.90
2017-10-23T17:11:28.825Z,90.00
2017-10-23T17:13:59.254Z,90.00
2017-10-23T17:16:28.892Z,89.80
2017-10-23T17:18:57.920Z,91.60
2017-10-23T17:21:26.343Z,90.40
2017-10-23T17:23:54.721Z,90.10
2017-10-23T17:26:23.407Z,89.90
2017-10-23T17:28:52.977Z,89.90
2017-10-23T17:31:21.886Z,89.80
2017-10-23T17:33:51.560Z,89.70
2017-10-23T17:36:20.515Z,90.40
2017-10-23T17:38:49.418Z,90.90
2017-10-23T17:41:18.263Z,90.30
2017-10-23T17:43:47.122Z,89.10
2017-10-23T17:46:16.731Z,87.70
2017-10-23T17:48:46.344Z,87.10
2017-10-23T17:51:15.987Z,86.70
2017-10-23T17:53:44.824Z,86.70
2017-10-23T17:56:13.663Z,85.80
2017-10-23T17:58:45.548Z,85.90
2017-10-23T18:01:14.403Z,85.60
2017-10-23T18:03:43.263Z,86.60
2017-10-23T18:06:12.128Z,87.50
2017-10-23T18:08:41.004Z,88.00
2017-10-23T18:11:09.854Z,88.40
2017-10-23T18:13:39.450Z,88.30
2017-10-23T18:16:09.054Z,88.40
2017-10-23T18:18:37.994Z,88.40
2017-10-23T18:21:06.886Z,88.00
2017-10-23T18:23:35.755Z,88.10
2017-10-23T18:26:04.603Z,88.20
2017-10-23T18:28:33.478Z,88.20
2017-10-23T18:31:02.365Z,87.90
2017-10-23T18:33:31.235Z,87.90
2017-10-23T18:36:00.117Z,87.80
2017-10-23T18:38:28.966Z,87.40
2017-10-23T18:40:58.314Z,87.20
2017-10-23T18:43:29.962Z,87.00
2017-10-23T18:45:58.835Z,86.70
2017-10-23T18:48:28.453Z,87.10
2017-10-23T18:50:58.740Z,87.00
2017-10-23T18:53:27.571Z,87.00
2017-10-23T18:55:57.178Z,86.70
2017-10-23T18:58:27.741Z,86.70
2017-10-23T19:00:57.499Z,86.70
2017-10-23T19:03:26.356Z,86.70
2017-10-23T19:05:54.923Z,86.50
2017-10-23T19:08:23.818Z,86.30
2017-10-23T19:10:52.973Z,86.00
2017-10-23T19:13:22.614Z,85.80
2017-10-23T19:15:51.559Z,85.80
2017-10-23T19:18:20.469Z,85.80
2017-10-23T19:20:51.142Z,85.50
2017-10-23T19:23:20.021Z,85.60
2017-10-23T19:25:48.905Z,85.70
2017-10-23T19:28:17.875Z,85.70
2017-10-23T19:30:47.504Z,85.80
2017-10-23T19:33:17.937Z,85.70
2017-10-23T19:35:46.501Z,85.70
2017-10-23T19:38:16.127Z,85.80
2017-10-23T19:40:44.723Z,85.70
2017-10-23T19:43:13.576Z,85.80
2017-10-23T19:45:43.213Z,85.90
2017-10-23T19:48:12.096Z,85.90
2017-10-23T19:50:40.967Z,85.80
2017-10-23T19:53:10.914Z,85.90
2017-10-23T19:55:41.388Z,85.90
2017-10-23T19:58:10.434Z,85.80
2017-10-23T20:00:38.785Z,85.90
2017-10-23T20:03:07.652Z,85.80
2017-10-23T20:05:36.506Z,85.70
2017-10-23T20:08:05.395Z,85.80
2017-10-23T20:10:34.250Z,85.90
2017-10-23T20:13:11.416Z,86.10
2017-10-23T20:15:40.287Z,86.00
2017-10-23T20:18:09.153Z,86.10
2017-10-23T20:20:38.344Z,86.40
2017-10-23T20:23:07.207Z,86.90
2017-10-23T20:25:36.063Z,87.20
2017-10-23T20:28:05.109Z,87.20
2017-10-23T20:30:34.735Z,87.40
2017-10-23T20:33:03.602Z,87.40
2017-10-23T20:35:33.223Z,87.00
2017-10-23T20:38:02.883Z,86.90
2017-10-23T20:40:32.019Z,86.90
2017-10-23T20:43:02.637Z,87.30
2017-10-23T20:45:31.379Z,87.90
2017-10-23T20:48:00.271Z,87.40
2017-10-23T20:50:29.182Z,87.60
2017-10-23T20:52:58.039Z,87.50
2017-10-23T20:55:26.907Z,91.40
2017-10-23T20:57:56.899Z,88.80
2017-10-23T21:00:25.755Z,88.70
2017-10-23T21:02:54.598Z,88.60
2017-10-23T21:05:23.471Z,88.50
2017-10-23T21:07:52.341Z,88.60
2017-10-23T21:10:23.641Z,88.20
2017-10-23T21:12:52.519Z,88.40
2017-10-23T21:15:22.137Z,88.70
2017-10-23T21:17:51.756Z,88.70
2017-10-23T21:20:30.388Z,88.70
2017-10-23T21:22:59.315Z,88.50
2017-10-23T21:25:28.202Z,88.10
2017-10-23T21:27:57.060Z,88.20
2017-10-23T21:30:26.095Z,88.30
2017-10-23T21:32:54.959Z,88.40
2017-10-23T21:35:23.805Z,88.60
2017-10-23T21:37:53.427Z,88.70
2017-10-23T21:40:23.020Z,88.80
2017-10-23T21:42:51.897Z,88.80
2017-10-23T21:45:20.784Z,88.60
2017-10-23T21:48:09.426Z,88.90
2017-10-23T21:50:39.931Z,89.30
2017-10-23T21:53:08.796Z,89.00
2017-10-23T21:55:37.476Z,89.00
2017-10-23T21:58:06.322Z,89.20
2017-10-23T22:00:35.194Z,89.20
2017-10-23T22:03:04.051Z,89.50
2017-10-23T22:05:34.199Z,90.00
2017-10-23T22:08:03.072Z,89.50
2017-10-23T22:10:31.944Z,89.60
2017-10-23T22:13:05.086Z,89.90
2017-10-23T22:15:34.643Z,89.90
2017-10-23T22:18:04.320Z,89.80
2017-10-23T22:20:34.237Z,89.80
2017-10-23T22:23:03.132Z,89.90
2017-10-23T22:25:32.013Z,89.70
2017-10-23T22:28:01.675Z,90.00
2017-10-23T22:34:59.361Z,89.90
2017-10-23T22:37:28.295Z,90.00
2017-10-23T22:40:00.727Z,90.00
2017-10-23T22:42:30.912Z,90.00
2017-10-23T22:45:00.579Z,90.00
2017-10-23T22:47:29.436Z,90.00
2017-10-23T22:49:58.299Z,90.10
2017-10-23T22:52:27.163Z,90.20
2017-10-23T22:54:56.044Z,90.20
2017-10-23T22:57:25.434Z,90.20
2017-10-23T22:59:55.054Z,90.20
2017-10-23T23:02:25.480Z,90.30
2017-10-23T23:04:54.369Z,90.30
2017-10-23T23:07:23.989Z,90.30
2017-10-23T23:09:53.324Z,90.30
2017-10-23T23:12:22.189Z,90.30
2017-10-23T23:14:51.070Z,90.40
2017-10-23T23:17:20.700Z,90.40
2017-10-23T23:19:50.155Z,90.30
2017-10-23T23:22:19.010Z,90.40
2017-10-23T23:24:47.679Z,90.40
2017-10-23T23:27:16.568Z,90.40
2017-10-23T23:29:45.458Z,90.50
2017-10-23T23:32:15.451Z,90.50
2017-10-23T23:34:45.654Z,90.50
2017-10-23T23:37:14.515Z,90.50
2017-10-23T23:39:44.227Z,90.50
2017-10-23T23:42:13.093Z,90.50
2017-10-23T23:44:41.986Z,90.40
2017-10-23T23:47:10.863Z,90.30
2017-10-23T23:49:39.719Z,90.30
2017-10-23T23:52:08.571Z,90.40
2017-10-23T23:54:37.430Z,90.50
2017-10-23T23:57:07.965Z,90.60
2017-10-23T23:59:36.815Z,90.60
